RESULTATS »

INSCRITS PRESENTATS ACABEN RETIRATS DESQUALIFICATS DIST. TRAM 1 DIST. TRAM 2 DIST. TRAM 3 TEMP. EXT TEMP. AIGUA
274 266 6 2 5 20 2 0 0

CLASSIFICACIÓ

MASCULÍ FEMENÍ CATEGORIES CLUBS (MASCULINA) CLUBS (FEMENINA) INDIVIDUALS GRUPS D'EDAT

LLOCDORSALNOMCLUBCAT.T.META| P.Tram 1 || P.Tram 2 |Km/hTEMPS| P.Tram 3 |PARC_1PARC_2
1 5030LAURA GOMEZ RAMONTRIATLON FERROLJNF01:03:518900:18:172900:37:1432.2300:55:316800:08:200:00:000:00:00
2 3518ANNA FLAQUER PORTIFASTTRIATLON CLUBSUB23F01:09:0514000:19:3510700:41:0429.2201:00:397900:08:260:00:000:00:00
3 17JESSICA BRILLAS FERNANDEZC.N. MATAROJNF01:09:5113900:19:3510800:41:0429.2201:00:3912700:09:120:00:000:00:00
4 3516NURIA PEIX TARRESC.N. VIC-ETBSUB23F01:11:4819200:20:5312200:41:4128.7901:02:3413400:09:140:00:000:00:00
5 1909EULALIA CALVERAS AUGEC.T.S.J. ABADESSESV1F01:13:3614900:19:5017400:44:1927.0801:04:0915600:09:270:00:000:00:00
6 1911JULIANA VILLASANTE DUEÑASTRIATLO BCN-TRIFORFUNSUB23F01:13:4017700:20:2217200:44:1327.1401:04:3511800:09:050:00:000:00:00
7 5RAQUEL DEL AGUILA BRAVOTRIATLO BCN-TRIFORFUNABF01:14:0121400:21:4414200:42:2528.2901:04:0920300:09:520:00:000:00:00
8 1814LAIA PI BOLTAC.N. CATALUNYASUB23F01:14:3318600:20:3318000:44:3926.8801:05:1214600:09:210:00:000:00:00
9 4046JUDIT BALTRONS OLIVERASCLUB TRIATLO BLANESABF01:14:4120800:21:2415200:43:2427.6501:04:4820400:09:530:00:000:00:00
10 1825CLAUDIA LUNA BONACHERAC.N. MATAROJNF01:15:3021500:21:4416900:44:0327.2401:05:4719000:09:430:00:000:00:00
11 3521MONICA CRISOL SALASC.N. PRAT-TRIATLOABF01:15:3617200:20:1719600:45:5826.1101:06:1514700:09:210:00:000:00:00
12 1939MERITXELL VELASCO AYGUASAC.N. MATAROJNF01:16:1716000:20:0021600:46:5925.5401:06:5913700:09:180:00:000:00:00
13 1912MERCE ASENSIO MIGUELC.N. CATALUNYAV1F01:16:3020000:21:1019200:45:3426.3401:06:4419300:09:460:00:000:00:00
14 1981ALBA PARDO FERNANDEZFASTTRIATLON CLUBABF01:16:3019300:20:5420400:46:1325.9601:07:0715100:09:230:00:000:00:00
15 4040LAIA CONESA I MURCLUB TRIATLO VALLIRANACDF01:16:5217500:20:2020500:46:2225.8801:06:4221300:10:100:00:000:00:00
16 1992MONTSE GALBANY FUSTEFASTTRIATLON CLUBV1F01:17:0019800:21:0519900:46:0126.0801:07:0620500:09:540:00:000:00:00
17 8MARTA BASSA GARCIAC.N. PRAT-TRIATLOABF01:18:1223300:22:1620000:46:0526.0401:08:2120100:09:510:00:000:00:00
18 5029ANNA VIÑOLAS RAMISAINDEPENDENTABF01:18:1621800:21:4821100:46:3725.7401:08:2520000:09:510:00:000:00:00
19 1815BELÉN SALOMONI SCHWABTRIATLO BCN-TRIFORFUNABF01:18:3921300:21:4421800:47:0625.4801:08:5019800:09:490:00:000:00:00
20 5026ESTEFANIA GÓMEZ DUEÑASTRITEAM GIRONAABF01:20:2418300:20:3123800:50:0723.9401:10:3819400:09:460:00:000:00:00
21 3524KATE VALL ROVIRACLUB TRIATLO L´EIX DE NAVSUB23F01:20:3724000:22:2522000:47:1525.4001:09:4024100:10:570:00:000:00:00
22 6014PILAR GUICH CORNELLALLICENCIA DE DIAV1F01:20:4020400:21:2023500:49:5124.0701:11:1116100:09:290:00:000:00:00
23 5010VERONICA ALONSO LOPEZCLUB TRIATLO BLANESABF01:22:3022000:21:5024100:50:4423.6501:12:3420600:09:560:00:000:00:00
24 4051CLARA SEGUÉS VIDALC.N. CATALUNYAABF01:22:3721100:21:3224400:51:1923.3801:12:5119200:09:460:00:000:00:00
25 1844SANDRA SUBIRANA PARERACLUB TRIATLO L´EIX DE NAVABF01:28:0925400:24:0225200:53:2722.4501:17:2923100:10:400:00:000:00:00
26 4049NEUS LLADO GUITARTC.A. IGUALADASUB23F01:28:2324700:22:5925500:54:2822.0301:17:2724000:10:560:00:000:00:00
27 1885MAMEN ROMAN MARINC.N. TERRASSA-CICLES MOREABF01:28:5825300:24:0025300:53:3122.4201:17:3124800:11:270:00:000:00:00
28 20MONSERRAT CLAVERO SANCHEZC.N. REUS PLOMSV3F01:29:1126200:25:1424600:52:2622.8901:17:4024900:11:310:00:000:00:00
29 1827MARINA CASTELLS CODINACLUB TRIATLO LLEIDA JNF01:29:3125700:24:4125400:54:0422.1901:18:4523500:10:460:00:000:00:00
30 31MONTSE CUEVAS CASTILLOC. TRI. GRANOLLERSV2F01:30:3126000:25:0025600:54:4321.9301:19:4323700:10:480:00:000:00:00
31 1851MARTA SANCHEZ SALINASCLUB TRIATLO L´EIX DE NAVV1F01:32:3726300:25:2525800:55:1721.7101:20:4225400:11:550:00:000:00:00
32 1941CRISTINA MARTINEZ RUBIOTRIATLO BCN-TRIFORFUNABF01:33:5526100:25:1226000:56:3421.2101:21:4625700:12:090:00:000:00:00
33 1896ESTER VALLEJO I COSTAC.N. VIC-ETBABF01:34:3325500:24:1426200:57:5420.7301:22:0826200:12:250:00:000:00:00
34 5028ADRIANA TARRÉ CASABLANCASC. TRI. GRANOLLERSV1F01:35:0526400:26:0826100:57:1520.9601:23:2325100:11:420:00:000:00:00
35 16ROSA MARIA MOR ABATCLUB CASTELLFOLLIT TRIATLV2F01:37:3226600:26:5026300:58:2120.5701:25:1126000:12:210:00:000:00:00






FEDERACIÓ CATALANA DE TRIATLÓ
SEU CENTRAL I CORRESPONDÈNCIA: Rambla Guipúscoa 23-25 2on-D · 08018 Barcelona · Tel / Fax : 93 307 93 35
ATENCIÓ AL PÚBLIC: Passeig Joan de Borbó, 93 (Club Natació Barcelona) · 08039 Barcelona · Tel / Fax : 93 307 93 32